sensor_id;sensor_type;location;lat;lon;timestamp;pressure;altitude;pressure_sealevel;temperature;humidity
5703;BME280;2876;51.738;10.050;2022-11-21T00:05:57;97947.31;;;0.94;96.90
5703;BME280;2876;51.738;10.050;2022-11-21T00:11:59;97945.03;;;0.91;97.43
5703;BME280;2876;51.738;10.050;2022-11-21T00:18:04;97941.69;;;0.97;97.63
5703;BME280;2876;51.738;10.050;2022-11-21T00:24:08;97933.44;;;1.00;97.29
5703;BME280;2876;51.738;10.050;2022-11-21T00:30:11;97933.88;;;1.04;96.57
5703;BME280;2876;51.738;10.050;2022-11-21T00:36:13;97935.19;;;1.08;96.65
5703;BME280;2876;51.738;10.050;2022-11-21T00:42:15;97935.59;;;0.97;96.80
5703;BME280;2876;51.738;10.050;2022-11-21T00:48:17;97932.16;;;0.88;97.12
5703;BME280;2876;51.738;10.050;2022-11-21T00:54:19;97929.88;;;0.85;97.64
5703;BME280;2876;51.738;10.050;2022-11-21T01:00:21;97929.34;;;0.90;97.29
5703;BME280;2876;51.738;10.050;2022-11-21T01:06:25;97937.00;;;1.08;96.84
5703;BME280;2876;51.738;10.050;2022-11-21T01:12:27;97929.78;;;0.70;97.42
5703;BME280;2876;51.738;10.050;2022-11-21T01:18:28;97928.75;;;0.80;97.47
5703;BME280;2876;51.738;10.050;2022-11-21T01:24:30;97927.63;;;0.74;97.94
5703;BME280;2876;51.738;10.050;2022-11-21T01:30:32;97919.16;;;0.47;98.56
5703;BME280;2876;51.738;10.050;2022-11-21T01:36:34;97912.84;;;0.57;98.70
5703;BME280;2876;51.738;10.050;2022-11-21T01:43:00;97918.75;;;0.67;98.17
5703;BME280;2876;51.738;10.050;2022-11-21T01:49:24;97921.47;;;0.50;98.58
5703;BME280;2876;51.738;10.050;2022-11-21T01:55:32;97939.41;;;0.55;98.53
5703;BME280;2876;51.738;10.050;2022-11-21T02:01:36;97956.56;;;0.51;98.88
5703;BME280;2876;51.738;10.050;2022-11-21T02:07:40;97962.47;;;0.53;98.49
5703;BME280;2876;51.738;10.050;2022-11-21T02:13:43;97956.91;;;0.40;98.72
5703;BME280;2876;51.738;10.050;2022-11-21T02:25:57;97976.75;;;0.28;98.21
5703;BME280;2876;51.738;10.050;2022-11-21T02:32:07;97976.56;;;0.13;98.37
5703;BME280;2876;51.738;10.050;2022-11-21T02:38:18;97980.53;;;0.25;98.30
5703;BME280;2876;51.738;10.050;2022-11-21T02:44:28;97982.03;;;0.03;98.85
5703;BME280;2876;51.738;10.050;2022-11-21T02:50:35;97971.03;;;-0.17;100.00
5703;BME280;2876;51.738;10.050;2022-11-21T02:56:37;97976.63;;;-0.12;100.00
5703;BME280;2876;51.738;10.050;2022-11-21T03:02:39;97973.97;;;-0.28;100.00
5703;BME280;2876;51.738;10.050;2022-11-21T03:08:41;97976.44;;;-0.18;100.00
5703;BME280;2876;51.738;10.050;2022-11-21T03:14:43;97994.38;;;-0.06;100.00
5703;BME280;2876;51.738;10.050;2022-11-21T03:21:13;97996.19;;;0.02;100.00
5703;BME280;2876;51.738;10.050;2022-11-21T03:27:15;98005.91;;;0.10;99.29
5703;BME280;2876;51.738;10.050;2022-11-21T03:33:17;98017.78;;;0.14;99.09
5703;BME280;2876;51.738;10.050;2022-11-21T03:39:33;98015.63;;;0.01;99.69
5703;BME280;2876;51.738;10.050;2022-11-21T03:45:38;98013.34;;;0.06;99.04
5703;BME280;2876;51.738;10.050;2022-11-21T03:51:42;98010.50;;;-0.01;99.37
5703;BME280;2876;51.738;10.050;2022-11-21T03:57:47;98033.59;;;0.06;98.74
5703;BME280;2876;51.738;10.050;2022-11-21T04:03:50;98047.28;;;0.09;98.78
5703;BME280;2876;51.738;10.050;2022-11-21T04:09:52;98034.25;;;0.08;99.22
5703;BME280;2876;51.738;10.050;2022-11-21T04:15:57;98035.06;;;0.08;98.80
5703;BME280;2876;51.738;10.050;2022-11-21T04:21:59;98057.28;;;0.30;99.17
5703;BME280;2876;51.738;10.050;2022-11-21T04:28:03;98071.28;;;0.31;97.24
5703;BME280;2876;51.738;10.050;2022-11-21T04:34:05;98080.69;;;0.17;97.92
5703;BME280;2876;51.738;10.050;2022-11-21T04:40:07;98091.56;;;0.22;97.10
5703;BME280;2876;51.738;10.050;2022-11-21T04:46:09;98084.47;;;0.31;97.28
5703;BME280;2876;51.738;10.050;2022-11-21T04:52:11;98091.59;;;0.14;97.56
5703;BME280;2876;51.738;10.050;2022-11-21T04:58:13;98102.63;;;0.09;96.90
5703;BME280;2876;51.738;10.050;2022-11-21T05:04:15;98097.00;;;0.12;98.02
5703;BME280;2876;51.738;10.050;2022-11-21T05:10:17;98104.25;;;0.10;97.84
5703;BME280;2876;51.738;10.050;2022-11-21T05:16:19;98116.41;;;-0.05;97.86
5703;BME280;2876;51.738;10.050;2022-11-21T05:22:21;98118.41;;;0.01;97.66
5703;BME280;2876;51.738;10.050;2022-11-21T05:28:23;98114.47;;;0.05;97.17
5703;BME280;2876;51.738;10.050;2022-11-21T05:34:25;98108.56;;;0.19;97.19
5703;BME280;2876;51.738;10.050;2022-11-21T05:40:28;98105.22;;;-0.07;97.55
5703;BME280;2876;51.738;10.050;2022-11-21T05:46:36;98105.22;;;-0.07;97.49
5703;BME280;2876;51.738;10.050;2022-11-21T05:52:38;98103.91;;;-0.03;96.38
5703;BME280;2876;51.738;10.050;2022-11-21T05:58:41;98113.81;;;0.11;96.65
5703;BME280;2876;51.738;10.050;2022-11-21T06:04:43;98108.69;;;-0.07;96.61
5703;BME280;2876;51.738;10.050;2022-11-21T06:10:45;98116.59;;;-0.07;97.21
5703;BME280;2876;51.738;10.050;2022-11-21T06:16:47;98121.84;;;-0.07;97.53
5703;BME280;2876;51.738;10.050;2022-11-21T06:22:50;98123.81;;;-0.01;96.76
5703;BME280;2876;51.738;10.050;2022-11-21T06:29:01;98126.16;;;0.03;96.83
5703;BME280;2876;51.738;10.050;2022-11-21T06:35:07;98130.44;;;0.04;96.59
5703;BME280;2876;51.738;10.050;2022-11-21T06:41:29;98145.28;;;0.05;96.02
5703;BME280;2876;51.738;10.050;2022-11-21T06:47:33;98145.28;;;0.05;97.06
5703;BME280;2876;51.738;10.050;2022-11-21T06:53:35;98152.69;;;0.09;96.52
5703;BME280;2876;51.738;10.050;2022-11-21T06:59:46;98153.00;;;0.22;96.35
5703;BME280;2876;51.738;10.050;2022-11-21T07:05:48;98160.91;;;0.06;96.10
5703;BME280;2876;51.738;10.050;2022-11-21T07:11:51;98165.56;;;0.20;96.47
5703;BME280;2876;51.738;10.050;2022-11-21T07:17:53;98180.72;;;0.35;96.60
5703;BME280;2876;51.738;10.050;2022-11-21T07:23:55;98183.88;;;0.46;96.73
5703;BME280;2876;51.738;10.050;2022-11-21T07:29:57;98203.81;;;0.57;96.34
5703;BME280;2876;51.738;10.050;2022-11-21T07:36:09;98187.66;;;0.76;94.98
5703;BME280;2876;51.738;10.050;2022-11-21T07:42:11;98185.19;;;0.75;95.47
5703;BME280;2876;51.738;10.050;2022-11-21T07:48:13;98191.28;;;0.84;94.97
5703;BME280;2876;51.738;10.050;2022-11-21T07:54:15;98191.63;;;0.89;95.10
5703;BME280;2876;51.738;10.050;2022-11-21T08:00:18;98189.28;;;1.02;93.85
5703;BME280;2876;51.738;10.050;2022-11-21T08:06:20;98203.97;;;1.05;92.82
5703;BME280;2876;51.738;10.050;2022-11-21T08:12:22;98194.75;;;1.00;92.30
5703;BME280;2876;51.738;10.050;2022-11-21T08:18:30;98203.00;;;1.06;92.93
5703;BME280;2876;51.738;10.050;2022-11-21T08:24:32;98184.16;;;1.17;92.47
5703;BME280;2876;51.738;10.050;2022-11-21T08:30:35;98190.41;;;1.24;92.04
5703;BME280;2876;51.738;10.050;2022-11-21T08:36:49;98192.72;;;1.19;90.90
5703;BME280;2876;51.738;10.050;2022-11-21T08:43:06;98199.34;;;1.23;90.75
5703;BME280;2876;51.738;10.050;2022-11-21T08:49:09;98200.63;;;1.27;90.41
5703;BME280;2876;51.738;10.050;2022-11-21T08:55:11;98195.81;;;1.39;90.03
5703;BME280;2876;51.738;10.050;2022-11-21T09:01:16;98199.78;;;1.35;90.37
5703;BME280;2876;51.738;10.050;2022-11-21T09:07:18;98206.66;;;1.60;90.52
5703;BME280;2876;51.738;10.050;2022-11-21T09:13:20;98195.50;;;1.25;88.95
5703;BME280;2876;51.738;10.050;2022-11-21T09:19:35;98204.53;;;1.47;88.20
5703;BME280;2876;51.738;10.050;2022-11-21T09:25:37;98210.03;;;1.38;87.98
5703;BME280;2876;51.738;10.050;2022-11-21T09:31:42;98217.88;;;1.62;89.41
5703;BME280;2876;51.738;10.050;2022-11-21T09:37:45;98220.50;;;1.62;87.31
5703;BME280;2876;51.738;10.050;2022-11-21T09:44:09;98228.38;;;1.87;87.79
5703;BME280;2876;51.738;10.050;2022-11-21T09:50:31;98219.72;;;2.32;86.20
5703;BME280;2876;51.738;10.050;2022-11-21T09:56:39;98219.19;;;2.60;83.16
5703;BME280;2876;51.738;10.050;2022-11-21T10:02:55;98202.34;;;2.29;83.03
5703;BME280;2876;51.738;10.050;2022-11-21T10:22:45;98193.25;;;2.55;82.75
5703;BME280;2876;51.738;10.050;2022-11-21T10:30:13;98192.28;;;2.71;82.95
5703;BME280;2876;51.738;10.050;2022-11-21T10:36:35;98179.06;;;2.25;82.04
5703;BME280;2876;51.738;10.050;2022-11-21T10:42:57;98166.72;;;2.40;83.23
5703;BME280;2876;51.738;10.050;2022-11-21T10:49:03;98161.88;;;2.67;82.37
5703;BME280;2876;51.738;10.050;2022-11-21T10:55:12;98169.59;;;2.53;82.90
5703;BME280;2876;51.738;10.050;2022-11-21T11:07:29;98164.50;;;2.52;81.90
5703;BME280;2876;51.738;10.050;2022-11-21T11:13:32;98156.31;;;2.62;80.80
5703;BME280;2876;51.738;10.050;2022-11-21T11:20:12;98151.44;;;2.50;81.01
5703;BME280;2876;51.738;10.050;2022-11-21T11:26:32;98143.13;;;2.53;81.84
5703;BME280;2876;51.738;10.050;2022-11-21T11:32:38;98126.06;;;2.41;81.77
5703;BME280;2876;51.738;10.050;2022-11-21T11:38:56;98107.34;;;2.43;81.49
5703;BME280;2876;51.738;10.050;2022-11-21T11:51:44;98110.78;;;2.66;81.00
5703;BME280;2876;51.738;10.050;2022-11-21T11:57:50;98105.94;;;2.55;81.44
5703;BME280;2876;51.738;10.050;2022-11-21T12:04:21;98098.06;;;2.47;80.34
5703;BME280;2876;51.738;10.050;2022-11-21T12:10:53;98083.34;;;2.44;81.93
5703;BME280;2876;51.738;10.050;2022-11-21T12:24:14;98048.53;;;2.70;79.92
5703;BME280;2876;51.738;10.050;2022-11-21T12:31:02;98059.59;;;2.74;80.20
5703;BME280;2876;51.738;10.050;2022-11-21T12:43:48;98046.81;;;2.25;81.38
5703;BME280;2876;51.738;10.050;2022-11-21T12:50:25;98041.50;;;2.10;82.57
5703;BME280;2876;51.738;10.050;2022-11-21T12:57:15;98021.50;;;2.08;82.73
5703;BME280;2876;51.738;10.050;2022-11-21T13:04:02;98028.44;;;1.63;84.82
5703;BME280;2876;51.738;10.050;2022-11-21T13:10:13;98021.63;;;1.45;85.62
5703;BME280;2876;51.738;10.050;2022-11-21T13:16:21;98014.00;;;1.50;85.93
5703;BME280;2876;51.738;10.050;2022-11-21T13:28:39;98002.97;;;1.70;86.95
5703;BME280;2876;51.738;10.050;2022-11-21T13:34:57;97994.41;;;1.91;87.27
5703;BME280;2876;51.738;10.050;2022-11-21T13:41:00;97982.66;;;2.08;85.90
5703;BME280;2876;51.738;10.050;2022-11-21T13:47:59;97965.88;;;2.01;86.52
5703;BME280;2876;51.738;10.050;2022-11-21T14:07:33;97967.28;;;1.74;87.56
5703;BME280;2876;51.738;10.050;2022-11-21T14:13:37;97975.13;;;1.82;88.06
5703;BME280;2876;51.738;10.050;2022-11-21T14:19:40;97972.38;;;1.75;88.26
5703;BME280;2876;51.738;10.050;2022-11-21T14:26:00;97950.75;;;1.49;88.51
5703;BME280;2876;51.738;10.050;2022-11-21T14:32:04;97941.50;;;1.30;89.98
5703;BME280;2876;51.738;10.050;2022-11-21T14:38:06;97940.84;;;1.28;91.28
5703;BME280;2876;51.738;10.050;2022-11-21T14:50:30;97916.13;;;1.21;91.23
5703;BME280;2876;51.738;10.050;2022-11-21T14:56:34;97912.38;;;1.38;91.41
5703;BME280;2876;51.738;10.050;2022-11-21T15:02:36;97890.41;;;1.23;91.72
5703;BME280;2876;51.738;10.050;2022-11-21T15:08:38;97885.31;;;1.13;92.74
5703;BME280;2876;51.738;10.050;2022-11-21T15:15:14;97891.38;;;1.22;93.10
5703;BME280;2876;51.738;10.050;2022-11-21T15:21:19;97880.97;;;1.43;92.54
5703;BME280;2876;51.738;10.050;2022-11-21T15:27:30;97862.59;;;1.27;93.21
5703;BME280;2876;51.738;10.050;2022-11-21T15:40:19;97850.31;;;1.19;94.11
5703;BME280;2876;51.738;10.050;2022-11-21T15:52:26;97861.78;;;1.26;93.89
5703;BME280;2876;51.738;10.050;2022-11-21T15:58:28;97849.41;;;1.27;93.95
5703;BME280;2876;51.738;10.050;2022-11-21T16:04:29;97849.94;;;1.22;94.03
5703;BME280;2876;51.738;10.050;2022-11-21T16:10:31;97843.41;;;1.18;94.19
5703;BME280;2876;51.738;10.050;2022-11-21T16:16:38;97845.03;;;1.19;94.20
5703;BME280;2876;51.738;10.050;2022-11-21T16:22:44;97834.22;;;1.29;93.94
5703;BME280;2876;51.738;10.050;2022-11-21T16:28:56;97818.88;;;1.10;93.64
5703;BME280;2876;51.738;10.050;2022-11-21T16:34:58;97807.50;;;1.09;95.19
5703;BME280;2876;51.738;10.050;2022-11-21T16:41:17;97804.34;;;1.29;95.01
5703;BME280;2876;51.738;10.050;2022-11-21T16:47:20;97809.34;;;1.23;95.14
5703;BME280;2876;51.738;10.050;2022-11-21T16:53:22;97786.88;;;1.27;95.68
5703;BME280;2876;51.738;10.050;2022-11-21T16:59:24;97773.97;;;1.33;95.51
5703;BME280;2876;51.738;10.050;2022-11-21T17:05:26;97767.75;;;1.40;95.53
5703;BME280;2876;51.738;10.050;2022-11-21T17:11:29;97733.06;;;1.58;95.48
5703;BME280;2876;51.738;10.050;2022-11-21T17:17:32;97726.16;;;1.42;96.43
5703;BME280;2876;51.738;10.050;2022-11-21T17:23:48;97703.38;;;1.56;96.81
5703;BME280;2876;51.738;10.050;2022-11-21T17:29:50;97701.09;;;1.68;97.43
5703;BME280;2876;51.738;10.050;2022-11-21T17:35:52;97687.06;;;1.67;97.58
5703;BME280;2876;51.738;10.050;2022-11-21T17:41:54;97699.19;;;1.62;98.17
5703;BME280;2876;51.738;10.050;2022-11-21T17:47:56;97678.03;;;1.76;98.24
5703;BME280;2876;51.738;10.050;2022-11-21T17:53:59;97666.91;;;1.81;98.44
5703;BME280;2876;51.738;10.050;2022-11-21T18:00:03;97652.34;;;1.70;98.32
5703;BME280;2876;51.738;10.050;2022-11-21T18:06:11;97646.88;;;1.87;98.17
5703;BME280;2876;51.738;10.050;2022-11-21T18:12:13;97646.31;;;1.91;97.95
5703;BME280;2876;51.738;10.050;2022-11-21T18:18:20;97631.44;;;1.90;97.78
5703;BME280;2876;51.738;10.050;2022-11-21T18:24:22;97618.22;;;1.90;97.99
5703;BME280;2876;51.738;10.050;2022-11-21T18:30:24;97627.00;;;1.91;97.54
5703;BME280;2876;51.738;10.050;2022-11-21T18:36:32;97608.41;;;1.84;98.02
5703;BME280;2876;51.738;10.050;2022-11-21T18:42:34;97591.91;;;1.82;98.84
5703;BME280;2876;51.738;10.050;2022-11-21T18:48:37;97587.56;;;1.74;99.23
5703;BME280;2876;51.738;10.050;2022-11-21T18:54:59;97571.47;;;1.91;98.94
5703;BME280;2876;51.738;10.050;2022-11-21T19:01:11;97565.28;;;1.84;99.56
5703;BME280;2876;51.738;10.050;2022-11-21T19:07:13;97552.53;;;1.87;99.75
5703;BME280;2876;51.738;10.050;2022-11-21T19:13:15;97561.59;;;1.78;100.00
5703;BME280;2876;51.738;10.050;2022-11-21T19:19:20;97565.28;;;1.84;100.00
5703;BME280;2876;51.738;10.050;2022-11-21T19:25:38;97547.00;;;1.82;100.00
5703;BME280;2876;51.738;10.050;2022-11-21T19:31:52;97533.09;;;1.73;100.00
5703;BME280;2876;51.738;10.050;2022-11-21T19:37:56;97534.81;;;1.66;100.00
5703;BME280;2876;51.738;10.050;2022-11-21T19:43:59;97541.75;;;1.67;100.00
5703;BME280;2876;51.738;10.050;2022-11-21T19:50:02;97575.06;;;1.83;100.00
5703;BME280;2876;51.738;10.050;2022-11-21T19:56:16;97568.25;;;1.74;100.00
5703;BME280;2876;51.738;10.050;2022-11-21T20:02:19;97586.31;;;1.92;100.00
5703;BME280;2876;51.738;10.050;2022-11-21T20:08:34;97581.94;;;1.63;100.00
5703;BME280;2876;51.738;10.050;2022-11-21T20:14:36;97563.78;;;1.74;100.00
5703;BME280;2876;51.738;10.050;2022-11-21T20:20:38;97562.25;;;1.65;100.00
5703;BME280;2876;51.738;10.050;2022-11-21T20:26:40;97532.28;;;1.58;100.00
5703;BME280;2876;51.738;10.050;2022-11-21T20:32:42;97543.41;;;1.68;100.00
5703;BME280;2876;51.738;10.050;2022-11-21T20:39:00;97531.41;;;1.72;100.00
5703;BME280;2876;51.738;10.050;2022-11-21T20:45:03;97535.72;;;1.73;100.00
5703;BME280;2876;51.738;10.050;2022-11-21T20:51:32;97557.97;;;1.86;100.00
5703;BME280;2876;51.738;10.050;2022-11-21T20:57:54;97564.53;;;1.90;100.00
5703;BME280;2876;51.738;10.050;2022-11-21T21:03:56;97555.91;;;1.81;100.00
5703;BME280;2876;51.738;10.050;2022-11-21T21:10:00;97548.50;;;1.91;100.00
5703;BME280;2876;51.738;10.050;2022-11-21T21:16:11;97544.66;;;1.94;100.00
5703;BME280;2876;51.738;10.050;2022-11-21T21:22:13;97533.91;;;1.95;100.00
5703;BME280;2876;51.738;10.050;2022-11-21T21:28:21;97537.41;;;1.81;100.00
5703;BME280;2876;51.738;10.050;2022-11-21T21:34:23;97525.41;;;2.00;100.00
5703;BME280;2876;51.738;10.050;2022-11-21T21:40:25;97522.50;;;1.95;100.00
5703;BME280;2876;51.738;10.050;2022-11-21T21:46:27;97523.50;;;1.94;100.00
5703;BME280;2876;51.738;10.050;2022-11-21T21:52:29;97508.53;;;2.01;100.00
5703;BME280;2876;51.738;10.050;2022-11-21T21:58:34;97511.66;;;1.90;100.00
5703;BME280;2876;51.738;10.050;2022-11-21T22:04:36;97484.31;;;1.97;100.00
5703;BME280;2876;51.738;10.050;2022-11-21T22:10:38;97489.97;;;1.94;100.00
5703;BME280;2876;51.738;10.050;2022-11-21T22:16:44;97476.75;;;1.94;100.00
5703;BME280;2876;51.738;10.050;2022-11-21T22:22:47;97475.31;;;1.92;100.00
5703;BME280;2876;51.738;10.050;2022-11-21T22:28:49;97459.22;;;1.87;100.00
5703;BME280;2876;51.738;10.050;2022-11-21T22:34:51;97451.53;;;1.92;100.00
5703;BME280;2876;51.738;10.050;2022-11-21T22:41:07;97447.09;;;1.99;100.00
5703;BME280;2876;51.738;10.050;2022-11-21T22:47:09;97437.50;;;1.91;100.00
5703;BME280;2876;51.738;10.050;2022-11-21T22:53:11;97425.91;;;1.92;100.00
5703;BME280;2876;51.738;10.050;2022-11-21T22:59:13;97414.91;;;1.89;100.00
5703;BME280;2876;51.738;10.050;2022-11-21T23:05:16;97415.56;;;1.97;100.00
5703;BME280;2876;51.738;10.050;2022-11-21T23:11:22;97403.31;;;1.90;100.00
5703;BME280;2876;51.738;10.050;2022-11-21T23:17:25;97397.19;;;1.83;100.00
5703;BME280;2876;51.738;10.050;2022-11-21T23:23:27;97395.81;;;1.65;100.00
5703;BME280;2876;51.738;10.050;2022-11-21T23:29:34;97392.22;;;1.73;100.00
5703;BME280;2876;51.738;10.050;2022-11-21T23:35:36;97387.19;;;1.78;100.00
5703;BME280;2876;51.738;10.050;2022-11-21T23:41:39;97372.22;;;1.92;100.00
5703;BME280;2876;51.738;10.050;2022-11-21T23:47:41;97370.19;;;1.59;100.00
5703;BME280;2876;51.738;10.050;2022-11-21T23:53:43;97381.84;;;1.71;100.00
5703;BME280;2876;51.738;10.050;2022-11-21T23:59:52;97386.75;;;1.74;100.00
